Time,TemperatureF,DewpointF,PressureIn,WindDirection,WindDirectionDegrees,WindSpeedMPH,WindSpeedGustMPH,Humidity,HourlyPrecipIn,Conditions,Clouds,dailyrainin,SoftwareType,DateUTC
2013-04-15 00:00:00,57.1,36.4,29.83,West,270,0.7,6.0,46,0.00,,,0.00,WUHU216HW,2013-04-15 05:00:00,
2013-04-15 00:05:00,56.7,36.1,29.83,NNW,338,1.8,5.4,46,0.00,,,0.00,WUHU216HW,2013-04-15 05:05:00,
2013-04-15 00:10:00,56.5,35.9,29.85,NNW,338,5.6,6.5,46,0.00,,,0.00,WUHU216HW,2013-04-15 05:10:00,
2013-04-15 00:15:00,56.5,35.9,29.85,North,0,3.4,6.5,46,0.00,,,0.00,WUHU216HW,2013-04-15 05:15:00,
2013-04-15 00:20:00,56.5,35.9,29.85,NW,315,1.8,5.8,46,0.00,,,0.00,WUHU216HW,2013-04-15 05:20:00,
2013-04-15 00:25:00,56.5,35.9,29.85,WNW,293,1.1,5.8,46,0.00,,,0.00,WUHU216HW,2013-04-15 05:25:00,
2013-04-15 00:30:00,56.3,35.7,29.86,NNW,338,1.8,4.7,46,0.00,,,0.00,WUHU216HW,2013-04-15 05:30:00,
2013-04-15 00:35:00,56.3,35.7,29.87,NW,315,0.9,4.7,46,0.00,,,0.00,WUHU216HW,2013-04-15 05:35:00,
2013-04-15 00:40:00,56.3,35.7,29.86,North,0,0.9,4.7,46,0.00,,,0.00,WUHU216HW,2013-04-15 05:40:00,
2013-04-15 00:45:00,56.2,36.1,29.87,NNW,338,3.6,3.6,47,0.00,,,0.00,WUHU216HW,2013-04-15 05:45:00,
2013-04-15 00:50:00,56.2,36.1,29.86,NNW,338,1.3,3.8,47,0.00,,,0.00,WUHU216HW,2013-04-15 05:50:00,
2013-04-15 00:55:00,56.0,35.9,29.86,NNW,338,2.0,3.8,47,0.00,,,0.00,WUHU216HW,2013-04-15 05:55:00,
2013-04-15 01:00:00,55.8,35.7,29.86,North,0,2.7,3.4,47,0.00,,,0.00,WUHU216HW,2013-04-15 06:00:00,
2013-04-15 01:05:00,55.8,35.7,29.86,NNW,338,1.8,3.6,47,0.00,,,0.00,WUHU216HW,2013-04-15 06:05:00,
2013-04-15 01:10:00,55.6,35.0,29.86,NW,315,1.8,3.6,46,0.00,,,0.00,WUHU216HW,2013-04-15 06:10:00,
2013-04-15 01:15:00,55.4,35.4,29.86,NNW,338,1.8,2.9,47,0.00,,,0.00,WUHU216HW,2013-04-15 06:15:00,
2013-04-15 01:20:00,55.3,35.3,29.86,NNW,338,0.2,2.9,47,0.00,,,0.00,WUHU216HW,2013-04-15 06:20:00,
2013-04-15 01:25:00,55.1,35.1,29.85,North,0,1.8,2.7,47,0.00,,,0.00,WUHU216HW,2013-04-15 06:25:00,
2013-04-15 01:30:00,55.1,35.6,29.86,NNW,338,0.0,2.5,48,0.00,,,0.00,WUHU216HW,2013-04-15 06:30:00,
2013-04-15 01:35:00,55.1,35.6,29.86,NNW,338,0.0,2.5,48,0.00,,,0.00,WUHU216HW,2013-04-15 06:35:00,
2013-04-15 01:40:00,54.9,36.0,29.85,NNW,338,0.4,0.7,49,0.00,,,0.00,WUHU216HW,2013-04-15 06:40:00,
2013-04-15 01:45:00,54.7,36.5,29.86,NNW,338,0.9,0.9,50,0.00,,,0.00,WUHU216HW,2013-04-15 06:45:00,
2013-04-15 01:50:00,54.5,36.3,29.85,NNW,338,2.0,2.0,50,0.00,,,0.00,WUHU216HW,2013-04-15 06:50:00,
2013-04-15 01:55:00,54.4,35.6,29.85,NNW,338,2.2,2.9,49,0.00,,,0.00,WUHU216HW,2013-04-15 06:55:00,
2013-04-15 02:00:00,54.4,35.6,29.85,North,0,1.1,2.9,49,0.00,,,0.00,WUHU216HW,2013-04-15 07:00:00,
2013-04-15 02:05:00,54.2,35.4,29.84,North,0,0.0,2.5,49,0.00,,,0.00,WUHU216HW,2013-04-15 07:05:00,
2013-04-15 02:06:00,54.2,35.4,29.84,North,0,1.8,2.5,49,0.00,,,0.00,WUHU216HW,2013-04-15 07:06:00,
2013-04-15 02:12:00,54.0,35.8,29.84,North,0,1.8,1.8,50,0.00,,,0.00,WUHU216HW,2013-04-15 07:12:00,
2013-04-15 02:18:00,53.8,35.7,29.84,NNW,338,1.6,1.8,50,0.00,,,0.00,WUHU216HW,2013-04-15 07:18:00,
2013-04-15 02:24:00,53.6,35.5,29.84,North,0,0.4,2.5,50,0.00,,,0.00,WUHU216HW,2013-04-15 07:24:00,
2013-04-15 02:31:00,53.6,35.5,29.85,North,0,0.0,2.5,50,0.00,,,0.00,WUHU216HW,2013-04-15 07:31:00,
2013-04-15 02:41:00,53.6,35.9,29.87,SW,225,0.4,1.1,51,0.00,,,0.00,WUHU216HW,2013-04-15 07:41:00,
2013-04-15 02:46:00,53.6,36.4,29.87,SSW,203,1.1,1.3,52,0.00,,,0.00,WUHU216HW,2013-04-15 07:46:00,
2013-04-15 02:48:00,53.5,36.3,29.87,South,180,1.3,1.8,52,0.00,,,0.00,WUHU216HW,2013-04-15 07:48:00,
2013-04-15 02:51:00,53.5,36.3,29.88,South,180,2.2,2.2,52,0.00,,,0.00,WUHU216HW,2013-04-15 07:51:00,
2013-04-15 02:56:00,53.5,36.3,29.89,SSE,158,2.5,2.5,52,0.00,,,0.00,WUHU216HW,2013-04-15 07:56:00,
2013-04-15 03:01:00,53.3,36.1,29.89,SW,225,1.1,3.8,52,0.00,,,0.00,WUHU216HW,2013-04-15 08:01:00,
2013-04-15 03:06:00,53.3,36.1,29.89,SSW,203,2.0,3.8,52,0.00,,,0.00,WUHU216HW,2013-04-15 08:06:00,
2013-04-15 03:11:00,53.3,36.1,29.90,SSW,203,2.2,3.4,52,0.00,,,0.00,WUHU216HW,2013-04-15 08:11:00,
2013-04-15 03:16:00,53.3,36.1,29.90,SSW,203,1.6,3.4,52,0.00,,,0.00,WUHU216HW,2013-04-15 08:16:00,
2013-04-15 03:21:00,53.1,35.9,29.88,SSW,203,0.9,2.9,52,0.00,,,0.00,WUHU216HW,2013-04-15 08:21:00,
2013-04-15 03:26:00,53.1,35.9,29.88,SSW,203,0.4,2.2,52,0.00,,,0.00,WUHU216HW,2013-04-15 08:26:00,
2013-04-15 03:31:00,53.1,35.9,29.87,SSW,203,0.0,2.2,52,0.00,,,0.00,WUHU216HW,2013-04-15 08:31:00,
2013-04-15 03:36:00,53.1,35.9,29.88,NNW,338,0.4,2.5,52,0.00,,,0.00,WUHU216HW,2013-04-15 08:36:00,
2013-04-15 03:40:00,52.9,35.7,29.89,WNW,293,0.4,2.5,52,0.00,,,0.00,WUHU216HW,2013-04-15 08:40:00,
2013-04-15 03:45:00,52.9,35.7,29.89,WSW,248,1.8,1.8,52,0.00,,,0.00,WUHU216HW,2013-04-15 08:45:00,
2013-04-15 03:50:00,52.9,35.7,29.90,SSW,203,2.5,2.9,52,0.00,,,0.00,WUHU216HW,2013-04-15 08:50:00,
2013-04-15 03:55:00,52.9,36.2,29.88,ESE,113,0.4,2.9,53,0.00,,,0.00,WUHU216HW,2013-04-15 08:55:00,
2013-04-15 04:00:00,52.4,36.6,29.87,North,0,1.3,2.5,55,0.01,,,0.00,WUHU216HW,2013-04-15 09:00:00,
2013-04-15 04:05:00,51.8,36.5,29.88,NW,315,0.0,2.5,56,0.02,,,0.01,WUHU216HW,2013-04-15 09:05:00,
2013-04-15 04:10:00,51.1,36.8,29.89,South,180,1.1,2.0,58,0.02,,,0.01,WUHU216HW,2013-04-15 09:10:00,
2013-04-15 04:15:00,50.6,37.2,29.90,South,180,1.8,1.8,60,0.02,,,0.01,WUHU216HW,2013-04-15 09:15:00,
2013-04-15 04:20:00,50.0,37.5,29.90,SE,135,2.0,2.5,62,0.02,,,0.01,WUHU216HW,2013-04-15 09:20:00,
2013-04-15 04:25:00,49.7,37.5,29.90,SW,225,2.5,2.5,63,0.03,,,0.02,WUHU216HW,2013-04-15 09:25:00,
2013-04-15 04:30:00,49.5,37.8,29.92,SW,225,2.0,2.5,64,0.03,,,0.02,WUHU216HW,2013-04-15 09:30:00,
2013-04-15 04:35:00,49.3,37.6,29.91,ESE,113,1.3,2.5,64,0.03,,,0.02,WUHU216HW,2013-04-15 09:35:00,
2013-04-15 04:40:00,49.0,37.7,29.91,SSE,158,1.1,2.5,65,0.03,,,0.02,WUHU216HW,2013-04-15 09:40:00,
2013-04-15 04:45:00,48.8,37.9,29.90,SE,135,1.1,2.5,66,0.03,,,0.02,WUHU216HW,2013-04-15 09:45:00,
2013-04-15 04:50:00,48.6,38.1,29.90,SSW,203,0.9,1.8,67,0.03,,,0.02,WUHU216HW,2013-04-15 09:50:00,
2013-04-15 04:55:00,48.6,38.1,29.90,SSE,158,1.6,1.6,67,0.03,,,0.02,WUHU216HW,2013-04-15 09:55:00,
2013-04-15 05:00:00,48.4,38.4,29.91,SSE,158,0.9,1.6,68,0.01,,,0.02,WUHU216HW,2013-04-15 10:00:00,
2013-04-15 05:05:00,48.2,38.5,29.89,ESE,113,0.4,1.8,69,0.02,,,0.03,WUHU216HW,2013-04-15 10:05:00,
2013-04-15 05:10:00,48.1,38.7,29.89,West,270,1.3,1.8,70,0.02,,,0.03,WUHU216HW,2013-04-15 10:10:00,
2013-04-15 05:15:00,48.1,38.7,29.89,South,180,2.9,2.9,70,0.03,,,0.05,WUHU216HW,2013-04-15 10:15:00,
2013-04-15 05:20:00,47.9,38.9,29.89,SW,225,0.9,3.6,71,0.03,,,0.05,WUHU216HW,2013-04-15 10:20:00,
2013-04-15 05:25:00,47.7,38.7,29.92,WSW,248,2.0,3.6,71,0.04,,,0.07,WUHU216HW,2013-04-15 10:25:00,
2013-04-15 05:30:00,47.5,38.9,29.92,South,180,3.4,4.0,72,0.04,,,0.07,WUHU216HW,2013-04-15 10:30:00,
2013-04-15 05:35:00,47.2,38.6,29.93,SSE,158,1.3,4.0,72,0.05,,,0.07,WUHU216HW,2013-04-15 10:35:00,
2013-04-15 05:40:00,47.0,38.4,29.91,South,180,0.4,3.6,72,0.06,,,0.09,WUHU216HW,2013-04-15 10:40:00,
2013-04-15 05:45:00,46.8,38.3,29.93,SW,225,2.7,2.7,72,0.06,,,0.09,WUHU216HW,2013-04-15 10:45:00,
2013-04-15 05:50:00,46.6,38.1,29.93,South,180,1.8,4.3,72,0.07,,,0.09,WUHU216HW,2013-04-15 10:50:00,
2013-04-15 05:55:00,46.4,38.0,29.91,NNE,23,0.2,4.3,72,0.10,,,0.13,WUHU216HW,2013-04-15 10:55:00,
2013-04-15 06:00:00,46.1,37.9,29.89,ESE,113,0.9,2.0,73,0.09,,,0.13,WUHU216HW,2013-04-15 11:00:00,
2013-04-15 06:05:00,45.7,37.9,29.88,SE,135,1.8,2.5,74,0.09,,,0.13,WUHU216HW,2013-04-15 11:05:00,
2013-04-15 06:10:00,45.7,38.3,29.90,SSE,158,1.1,2.5,75,0.09,,,0.13,WUHU216HW,2013-04-15 11:10:00,
2013-04-15 06:15:00,45.7,38.3,29.90,SSE,158,1.1,2.2,75,0.08,,,0.13,WUHU216HW,2013-04-15 11:15:00,
2013-04-15 06:20:00,45.7,38.6,29.90,SSE,158,0.4,1.8,76,0.06,,,0.13,WUHU216HW,2013-04-15 11:20:00,
2013-04-15 06:25:00,45.7,38.6,29.90,SSE,158,0.2,1.8,76,0.06,,,0.13,WUHU216HW,2013-04-15 11:25:00,
2013-04-15 06:30:00,45.7,38.6,29.91,South,180,0.9,1.1,76,0.06,,,0.13,WUHU216HW,2013-04-15 11:30:00,
2013-04-15 06:35:00,45.7,38.6,29.91,SSE,158,0.7,1.6,76,0.05,,,0.13,WUHU216HW,2013-04-15 11:35:00,
2013-04-15 06:40:00,45.7,39.0,29.90,SSE,158,0.0,1.6,77,0.04,,,0.13,WUHU216HW,2013-04-15 11:40:00,
2013-04-15 06:45:00,45.7,39.0,29.90,SSE,158,0.0,0.9,77,0.04,,,0.13,WUHU216HW,2013-04-15 11:45:00,
2013-04-15 06:50:00,45.7,39.0,29.91,SSE,158,0.9,1.1,77,0.03,,,0.13,WUHU216HW,2013-04-15 11:50:00,
2013-04-15 06:55:00,45.7,39.2,29.91,South,180,0.0,1.6,78,0.00,,,0.13,WUHU216HW,2013-04-15 11:55:00,
2013-04-15 07:00:00,45.7,39.2,29.91,SSE,158,0.2,1.6,78,0.00,,,0.13,WUHU216HW,2013-04-15 12:00:00,
2013-04-15 07:05:00,45.7,39.0,29.91,SW,225,0.7,1.1,77,0.00,,,0.13,WUHU216HW,2013-04-15 12:05:00,
2013-04-15 07:10:00,45.7,39.0,29.91,SW,225,0.0,0.9,77,0.00,,,0.13,WUHU216HW,2013-04-15 12:10:00,
2013-04-15 07:15:00,45.9,39.2,29.92,SW,225,0.0,0.9,77,0.00,,,0.13,WUHU216HW,2013-04-15 12:15:00,
2013-04-15 07:20:00,45.9,39.2,29.92,SW,225,0.0,0.0,77,0.00,,,0.13,WUHU216HW,2013-04-15 12:20:00,
2013-04-15 07:25:00,45.9,39.2,29.92,South,180,0.9,1.1,77,0.00,,,0.13,WUHU216HW,2013-04-15 12:25:00,
2013-04-15 07:30:00,46.1,39.3,29.92,South,180,0.0,1.1,77,0.00,,,0.13,WUHU216HW,2013-04-15 12:30:00,
2013-04-15 07:35:00,46.1,39.6,29.93,South,180,0.9,1.3,78,0.00,,,0.13,WUHU216HW,2013-04-15 12:35:00,
2013-04-15 07:40:00,46.1,39.6,29.93,SSE,158,1.1,2.0,78,0.00,,,0.13,WUHU216HW,2013-04-15 12:40:00,
2013-04-15 07:45:00,46.3,39.8,29.93,SE,135,1.8,2.0,78,0.00,,,0.13,WUHU216HW,2013-04-15 12:45:00,
2013-04-15 07:50:00,46.3,39.8,29.93,SSE,158,0.7,1.8,78,0.00,,,0.13,WUHU216HW,2013-04-15 12:50:00,
2013-04-15 07:55:00,46.3,39.8,29.93,SSE,158,0.0,1.8,78,0.00,,,0.13,WUHU216HW,2013-04-15 12:55:00,
2013-04-15 08:00:00,46.3,39.8,29.93,South,180,1.1,1.1,78,0.00,,,0.13,WUHU216HW,2013-04-15 13:00:00,
2013-04-15 08:05:00,46.4,40.0,29.93,South,180,0.0,1.1,78,0.00,,,0.13,WUHU216HW,2013-04-15 13:05:00,
2013-04-15 08:10:00,46.4,40.0,29.93,ESE,113,0.9,1.1,78,0.00,,,0.13,WUHU216HW,2013-04-15 13:10:00,
2013-04-15 08:15:00,46.4,40.0,29.93,SSW,203,1.1,1.1,78,0.00,,,0.13,WUHU216HW,2013-04-15 13:15:00,
2013-04-15 08:20:00,46.6,40.1,29.93,SSW,203,0.0,1.3,78,0.00,,,0.13,WUHU216HW,2013-04-15 13:20:00,
2013-04-15 08:25:00,46.6,40.1,29.93,SSW,203,0.0,1.3,78,0.00,,,0.13,WUHU216HW,2013-04-15 13:25:00,
2013-04-15 08:30:00,46.8,40.3,29.93,North,0,1.3,1.3,78,0.00,,,0.13,WUHU216HW,2013-04-15 13:30:00,
2013-04-15 08:35:00,46.8,40.3,29.93,NNE,23,0.0,1.3,78,0.00,,,0.13,WUHU216HW,2013-04-15 13:35:00,
2013-04-15 08:40:00,47.0,40.9,29.93,North,0,0.0,1.3,79,0.00,,,0.13,WUHU216HW,2013-04-15 13:40:00,
2013-04-15 08:45:00,47.2,40.7,29.93,North,0,0.7,1.1,78,0.00,,,0.13,WUHU216HW,2013-04-15 13:45:00,
2013-04-15 08:50:00,47.2,41.0,29.94,NNW,338,1.1,1.3,79,0.00,,,0.13,WUHU216HW,2013-04-15 13:50:00,
2013-04-15 08:55:00,47.3,40.8,29.93,North,0,1.3,1.8,78,0.00,,,0.13,WUHU216HW,2013-04-15 13:55:00,
2013-04-15 09:00:00,47.2,40.7,29.94,NNW,338,2.0,2.5,78,0.00,,,0.13,WUHU216HW,2013-04-15 14:00:00,
2013-04-15 09:05:00,47.5,41.0,29.94,NNW,338,0.7,2.5,78,0.00,,,0.13,WUHU216HW,2013-04-15 14:05:00,
2013-04-15 09:10:00,47.5,41.0,29.94,NNW,338,0.4,1.8,78,0.00,,,0.13,WUHU216HW,2013-04-15 14:10:00,
2013-04-15 09:15:00,47.7,41.1,29.94,North,0,1.8,2.5,78,0.00,,,0.13,WUHU216HW,2013-04-15 14:15:00,
2013-04-15 09:20:00,47.7,41.1,29.94,North,0,1.6,2.5,78,0.00,,,0.13,WUHU216HW,2013-04-15 14:20:00,
2013-04-15 09:25:00,47.7,41.1,29.94,NNW,338,1.1,2.2,78,0.00,,,0.13,WUHU216HW,2013-04-15 14:25:00,
2013-04-15 09:31:00,47.9,41.3,29.94,North,0,0.4,2.0,78,0.00,,,0.13,WUHU216HW,2013-04-15 14:31:00,
2013-04-15 09:36:00,48.1,41.1,29.94,North,0,2.9,2.9,77,0.00,,,0.13,WUHU216HW,2013-04-15 14:36:00,
2013-04-15 09:40:00,48.2,41.3,29.94,NNW,338,1.8,2.9,77,0.00,,,0.13,WUHU216HW,2013-04-15 14:40:00,
2013-04-15 09:45:00,48.6,41.7,29.95,NNW,338,2.0,2.9,77,0.00,,,0.13,WUHU216HW,2013-04-15 14:45:00,
2013-04-15 09:50:00,48.6,41.3,29.95,NNW,338,1.3,2.7,76,0.00,,,0.13,WUHU216HW,2013-04-15 14:50:00,
2013-04-15 09:56:00,48.6,41.3,29.96,NNW,338,1.1,2.5,76,0.00,,,0.13,WUHU216HW,2013-04-15 14:56:00,
2013-04-15 10:01:00,48.8,41.5,29.96,NW,315,1.1,2.5,76,0.00,,,0.13,WUHU216HW,2013-04-15 15:01:00,
2013-04-15 10:06:00,49.0,41.7,29.96,NW,315,0.0,2.5,76,0.00,,,0.13,WUHU216HW,2013-04-15 15:06:00,
2013-04-15 10:12:00,49.0,41.3,29.96,North,0,1.1,1.6,75,0.00,,,0.13,WUHU216HW,2013-04-15 15:12:00,
2013-04-15 10:17:00,49.1,41.5,29.96,North,0,0.0,1.6,75,0.00,,,0.13,WUHU216HW,2013-04-15 15:17:00,
2013-04-15 10:22:00,49.1,41.5,29.96,NNE,23,0.0,1.1,75,0.00,,,0.13,WUHU216HW,2013-04-15 15:22:00,
2013-04-15 10:27:00,49.3,41.3,29.96,NNE,23,0.0,1.3,74,0.00,,,0.13,WUHU216HW,2013-04-15 15:27:00,
2013-04-15 10:32:00,49.3,41.3,29.96,NNE,23,1.1,1.3,74,0.00,,,0.13,WUHU216HW,2013-04-15 15:32:00,
2013-04-15 10:37:00,49.7,41.7,29.97,North,0,1.1,1.3,74,0.00,,,0.13,WUHU216HW,2013-04-15 15:37:00,
2013-04-15 10:42:00,49.9,41.9,29.96,North,0,0.4,1.3,74,0.00,,,0.13,WUHU216HW,2013-04-15 15:42:00,
2013-04-15 10:47:00,50.0,41.7,29.97,North,0,0.0,1.8,73,0.00,,,0.13,WUHU216HW,2013-04-15 15:47:00,
2013-04-15 10:52:00,50.0,41.7,29.97,North,0,2.2,2.2,73,0.00,,,0.13,WUHU216HW,2013-04-15 15:52:00,
2013-04-15 10:57:00,50.2,41.6,29.97,NNE,23,0.9,2.2,72,0.00,,,0.13,WUHU216HW,2013-04-15 15:57:00,
2013-04-15 11:02:00,50.2,41.6,29.97,NNW,338,0.4,1.8,72,0.00,,,0.13,WUHU216HW,2013-04-15 16:02:00,
2013-04-15 11:07:00,50.6,42.0,29.97,NNW,338,2.7,2.7,72,0.00,,,0.13,WUHU216HW,2013-04-15 16:07:00,
2013-04-15 11:12:00,50.6,42.0,29.96,NE,45,1.3,2.7,72,0.00,,,0.13,WUHU216HW,2013-04-15 16:12:00,
2013-04-15 11:17:00,50.8,41.8,29.96,NNE,23,0.2,1.8,71,0.00,,,0.13,WUHU216HW,2013-04-15 16:17:00,
2013-04-15 11:22:00,51.1,42.1,29.96,North,0,0.7,2.5,71,0.00,,,0.13,WUHU216HW,2013-04-15 16:22:00,
2013-04-15 11:27:00,51.5,42.1,29.96,North,0,1.1,2.5,70,0.00,,,0.13,WUHU216HW,2013-04-15 16:27:00,
2013-04-15 11:32:00,51.7,41.9,29.97,ESE,113,0.4,2.7,69,0.00,,,0.13,WUHU216HW,2013-04-15 16:32:00,
2013-04-15 11:37:00,52.0,42.2,29.97,North,0,1.6,3.1,69,0.00,,,0.13,WUHU216HW,2013-04-15 16:37:00,
2013-04-15 11:42:00,52.2,42.4,29.97,NW,315,1.3,3.1,69,0.00,,,0.13,WUHU216HW,2013-04-15 16:42:00,
2013-04-15 11:47:00,52.4,42.1,29.97,North,0,2.5,2.5,68,0.00,,,0.13,WUHU216HW,2013-04-15 16:47:00,
2013-04-15 11:52:00,52.6,41.5,29.97,North,0,1.8,4.3,66,0.00,,,0.13,WUHU216HW,2013-04-15 16:52:00,
2013-04-15 11:57:00,52.6,39.5,29.97,North,0,5.1,5.1,61,0.00,,,0.13,WUHU216HW,2013-04-15 16:57:00,
2013-04-15 12:02:00,52.6,39.9,29.96,NNW,338,1.3,6.3,62,0.00,,,0.13,WUHU216HW,2013-04-15 17:02:00,
2013-04-15 12:07:00,52.6,39.5,29.97,NNW,338,3.4,6.3,61,0.00,,,0.13,WUHU216HW,2013-04-15 17:07:00,
2013-04-15 12:13:00,52.4,39.3,29.97,North,0,4.3,6.0,61,0.00,,,0.13,WUHU216HW,2013-04-15 17:13:00,
2013-04-15 12:18:00,52.2,38.3,29.96,NE,45,1.1,7.2,59,0.00,,,0.13,WUHU216HW,2013-04-15 17:18:00,
2013-04-15 12:21:00,52.2,38.7,29.97,NNW,338,1.8,7.2,60,0.00,,,0.13,WUHU216HW,2013-04-15 17:21:00,
2013-04-15 12:25:00,51.8,37.9,29.97,NNE,23,2.0,7.2,59,0.00,,,0.13,WUHU216HW,2013-04-15 17:25:00,
2013-04-15 12:30:00,52.0,38.5,29.97,NW,315,4.5,6.0,60,0.00,,,0.13,WUHU216HW,2013-04-15 17:30:00,
2013-04-15 12:35:00,51.8,38.8,29.97,NNW,338,2.5,6.0,61,0.00,,,0.13,WUHU216HW,2013-04-15 17:35:00,
2013-04-15 12:40:00,51.8,38.3,29.97,NNW,338,2.5,6.0,60,0.00,,,0.13,WUHU216HW,2013-04-15 17:40:00,
2013-04-15 12:45:00,51.7,38.2,29.98,ENE,68,5.1,6.9,60,0.00,,,0.13,WUHU216HW,2013-04-15 17:45:00,
2013-04-15 12:50:00,51.5,37.5,29.97,North,0,4.9,6.9,59,0.00,,,0.13,WUHU216HW,2013-04-15 17:50:00,
2013-04-15 12:55:00,51.3,37.5,29.97,NNW,338,1.8,6.9,59,0.00,,,0.13,WUHU216HW,2013-04-15 17:55:00,
2013-04-15 13:00:00,51.5,38.0,29.96,NNE,23,3.6,6.3,60,0.00,,,0.13,WUHU216HW,2013-04-15 18:00:00,
2013-04-15 13:05:00,51.5,38.0,29.96,NNW,338,2.2,6.3,60,0.00,,,0.13,WUHU216HW,2013-04-15 18:05:00,
2013-04-15 13:10:00,51.3,37.9,29.97,NNW,338,5.1,7.2,60,0.00,,,0.13,WUHU216HW,2013-04-15 18:10:00,
2013-04-15 13:15:00,51.1,37.7,29.96,NW,315,5.1,8.1,60,0.00,,,0.13,WUHU216HW,2013-04-15 18:15:00,
2013-04-15 13:20:00,50.9,37.1,29.96,NNW,338,4.7,9.2,59,0.00,,,0.13,WUHU216HW,2013-04-15 18:20:00,
2013-04-15 13:25:00,50.8,36.9,29.96,NNW,338,3.4,9.2,59,0.00,,,0.13,WUHU216HW,2013-04-15 18:25:00,
2013-04-15 13:29:00,50.8,36.9,29.96,NNW,338,5.4,6.5,59,0.00,,,0.13,WUHU216HW,2013-04-15 18:29:00,
2013-04-15 13:30:00,50.8,36.9,29.96,NNW,338,3.1,6.5,59,0.00,,,0.13,WUHU216HW,2013-04-15 18:30:00,
2013-04-15 13:35:00,50.8,36.5,29.95,NNE,23,9.2,9.2,58,0.00,,,0.13,WUHU216HW,2013-04-15 18:35:00,
2013-04-15 13:40:00,50.4,36.2,29.95,NNW,338,6.9,9.8,58,0.00,,,0.13,WUHU216HW,2013-04-15 18:40:00,
2013-04-15 13:45:00,50.4,36.2,29.95,NNE,23,6.0,9.8,58,0.00,,,0.13,WUHU216HW,2013-04-15 18:45:00,
2013-04-15 13:50:00,50.4,36.6,29.95,NE,45,3.1,7.8,59,0.00,,,0.13,WUHU216HW,2013-04-15 18:50:00,
2013-04-15 13:55:00,50.4,35.7,29.95,NNW,338,6.9,6.9,57,0.00,,,0.13,WUHU216HW,2013-04-15 18:55:00,
2013-04-15 14:00:00,50.4,36.2,29.95,North,0,6.5,8.9,58,0.00,,,0.13,WUHU216HW,2013-04-15 19:00:00,
2013-04-15 14:05:00,50.4,36.2,29.95,NNW,338,2.5,9.6,58,0.00,,,0.13,WUHU216HW,2013-04-15 19:05:00,
2013-04-15 14:10:00,50.2,36.0,29.95,NNW,338,4.0,10.3,58,0.00,,,0.13,WUHU216HW,2013-04-15 19:10:00,
2013-04-15 14:15:00,50.2,36.0,29.95,North,0,2.7,10.5,58,0.00,,,0.13,WUHU216HW,2013-04-15 19:15:00,
2013-04-15 14:20:00,50.2,36.0,29.94,North,0,4.3,10.5,58,0.00,,,0.13,WUHU216HW,2013-04-15 19:20:00,
2013-04-15 14:25:00,50.4,36.2,29.95,NNE,23,3.4,6.9,58,0.00,,,0.13,WUHU216HW,2013-04-15 19:25:00,
2013-04-15 14:30:00,50.2,35.6,29.95,North,0,5.4,10.7,57,0.00,,,0.13,WUHU216HW,2013-04-15 19:30:00,
2013-04-15 14:35:00,50.0,35.4,29.95,North,0,7.4,10.7,57,0.00,,,0.13,WUHU216HW,2013-04-15 19:35:00,
2013-04-15 14:40:00,50.0,35.4,29.95,North,0,7.4,9.6,57,0.00,,,0.13,WUHU216HW,2013-04-15 19:40:00,
2013-04-15 14:45:00,49.9,35.2,29.95,North,0,5.4,9.6,57,0.00,,,0.13,WUHU216HW,2013-04-15 19:45:00,
2013-04-15 14:50:00,49.7,35.0,29.96,NNW,338,7.4,8.9,57,0.00,,,0.13,WUHU216HW,2013-04-15 19:50:00,
2013-04-15 14:55:00,49.7,35.0,29.95,North,0,2.9,7.8,57,0.00,,,0.13,WUHU216HW,2013-04-15 19:55:00,
2013-04-15 14:57:00,49.9,35.2,29.95,SSW,203,4.7,7.8,57,0.00,,,0.13,WUHU216HW,2013-04-15 19:57:00,
2013-04-15 14:58:00,49.9,35.2,29.95,SSW,203,4.7,7.8,57,0.00,,,0.13,WUHU216HW,2013-04-15 19:58:00,
2013-04-15 15:01:00,49.9,35.2,29.95,NNW,338,4.0,6.7,57,0.00,,,0.13,WUHU216HW,2013-04-15 20:01:00,
2013-04-15 15:02:00,49.9,35.2,29.95,North,0,4.0,6.7,57,0.00,,,0.13,WUHU216HW,2013-04-15 20:02:00,
2013-04-15 15:07:00,49.7,35.0,29.95,NE,45,0.9,10.5,57,0.00,,,0.13,WUHU216HW,2013-04-15 20:07:00,
2013-04-15 15:12:00,49.7,34.6,29.95,NNW,338,1.1,11.4,56,0.00,,,0.13,WUHU216HW,2013-04-15 20:12:00,
2013-04-15 15:17:00,49.7,34.6,29.94,North,0,4.0,11.4,56,0.00,,,0.13,WUHU216HW,2013-04-15 20:17:00,
2013-04-15 15:22:00,49.7,34.6,29.94,NNW,338,0.4,9.4,56,0.00,,,0.13,WUHU216HW,2013-04-15 20:22:00,
2013-04-15 15:27:00,49.7,34.1,29.94,NNW,338,10.1,10.1,55,0.00,,,0.13,WUHU216HW,2013-04-15 20:27:00,
2013-04-15 15:32:00,49.3,34.2,29.95,NNW,338,6.7,10.1,56,0.00,,,0.13,WUHU216HW,2013-04-15 20:32:00,
2013-04-15 15:37:00,49.3,34.2,29.94,North,0,3.4,10.1,56,0.00,,,0.13,WUHU216HW,2013-04-15 20:37:00,
2013-04-15 15:42:00,49.0,33.5,29.94,North,0,3.4,8.7,55,0.00,,,0.13,WUHU216HW,2013-04-15 20:42:00,
2013-04-15 15:47:00,49.0,33.9,29.94,NNE,23,2.5,7.4,56,0.00,,,0.13,WUHU216HW,2013-04-15 20:47:00,
2013-04-15 15:52:00,49.0,33.5,29.94,North,0,1.1,8.5,55,0.00,,,0.13,WUHU216HW,2013-04-15 20:52:00,
2013-04-15 15:57:00,48.8,33.3,29.94,North,0,2.5,8.5,55,0.00,,,0.13,WUHU216HW,2013-04-15 20:57:00,
2013-04-15 16:02:00,48.8,33.3,29.94,North,0,3.6,8.1,55,0.00,,,0.13,WUHU216HW,2013-04-15 21:02:00,
2013-04-15 16:07:00,49.0,33.9,29.94,SE,135,0.7,6.7,56,0.00,,,0.13,WUHU216HW,2013-04-15 21:07:00,
2013-04-15 16:12:00,49.0,33.9,29.94,NNW,338,2.0,4.9,56,0.00,,,0.13,WUHU216HW,2013-04-15 21:12:00,
2013-04-15 16:17:00,49.0,33.5,29.94,North,0,5.1,5.1,55,0.00,,,0.13,WUHU216HW,2013-04-15 21:17:00,
2013-04-15 16:22:00,48.8,32.9,29.94,North,0,2.9,5.4,54,0.00,,,0.13,WUHU216HW,2013-04-15 21:22:00,
2013-04-15 16:27:00,49.0,33.5,29.94,North,0,6.9,6.9,55,0.00,,,0.13,WUHU216HW,2013-04-15 21:27:00,
2013-04-15 16:32:00,49.0,32.9,29.94,North,0,1.6,8.7,54,0.00,,,0.13,WUHU216HW,2013-04-15 21:32:00,
2013-04-15 16:37:00,49.0,32.5,29.94,NNE,23,5.6,8.7,53,0.00,,,0.13,WUHU216HW,2013-04-15 21:37:00,
2013-04-15 16:42:00,48.8,32.3,29.95,North,0,0.4,5.6,53,0.00,,,0.13,WUHU216HW,2013-04-15 21:42:00,
2013-04-15 16:47:00,48.8,32.3,29.94,North,0,3.4,7.6,53,0.00,,,0.13,WUHU216HW,2013-04-15 21:47:00,
2013-04-15 16:52:00,48.8,31.9,29.94,NNE,23,0.4,7.6,52,0.00,,,0.13,WUHU216HW,2013-04-15 21:52:00,
2013-04-15 16:57:00,49.0,32.5,29.94,NE,45,1.1,6.5,53,0.00,,,0.13,WUHU216HW,2013-04-15 21:57:00,
2013-04-15 17:02:00,49.0,32.5,29.95,ENE,68,1.1,5.6,53,0.00,,,0.13,WUHU216HW,2013-04-15 22:02:00,
2013-04-15 17:07:00,49.0,32.5,29.95,North,0,4.7,5.1,53,0.00,,,0.13,WUHU216HW,2013-04-15 22:07:00,
2013-04-15 17:12:00,49.0,32.5,29.95,NNE,23,2.2,5.1,53,0.00,,,0.13,WUHU216HW,2013-04-15 22:12:00,
2013-04-15 17:17:00,49.0,32.9,29.95,NW,315,1.3,6.0,54,0.00,,,0.13,WUHU216HW,2013-04-15 22:17:00,
2013-04-15 17:22:00,49.0,32.9,29.95,NE,45,2.0,6.0,54,0.00,,,0.13,WUHU216HW,2013-04-15 22:22:00,
2013-04-15 17:28:00,49.0,32.9,29.95,NE,45,2.0,4.0,54,0.00,,,0.13,WUHU216HW,2013-04-15 22:28:00,
2013-04-15 17:33:00,48.8,32.9,29.95,North,0,1.6,4.0,54,0.00,,,0.13,WUHU216HW,2013-04-15 22:33:00,
2013-04-15 17:38:00,48.8,32.3,29.96,NE,45,2.2,4.5,53,0.00,,,0.13,WUHU216HW,2013-04-15 22:38:00,
2013-04-15 17:43:00,48.6,32.1,29.96,NNE,23,1.8,4.5,53,0.00,,,0.13,WUHU216HW,2013-04-15 22:43:00,
2013-04-15 17:48:00,48.6,32.7,29.96,SE,135,1.1,4.0,54,0.00,,,0.13,WUHU216HW,2013-04-15 22:48:00,
2013-04-15 17:53:00,48.6,32.7,29.96,NNE,23,1.8,4.0,54,0.00,,,0.13,WUHU216HW,2013-04-15 22:53:00,
2013-04-15 17:58:00,48.6,32.7,29.97,NNE,23,1.8,4.0,54,0.00,,,0.13,WUHU216HW,2013-04-15 22:58:00,
2013-04-15 18:03:00,48.4,32.5,29.97,NNE,23,2.7,4.7,54,0.00,,,0.13,WUHU216HW,2013-04-15 23:03:00,
2013-04-15 18:08:00,48.4,33.0,29.97,North,0,3.4,4.7,55,0.00,,,0.13,WUHU216HW,2013-04-15 23:08:00,
2013-04-15 18:13:00,48.4,33.0,29.97,NE,45,1.8,4.9,55,0.00,,,0.13,WUHU216HW,2013-04-15 23:13:00,
2013-04-15 18:18:00,48.4,33.0,29.97,NNE,23,2.0,4.9,55,0.00,,,0.13,WUHU216HW,2013-04-15 23:18:00,
2013-04-15 18:23:00,48.4,33.0,29.97,ENE,68,2.5,4.5,55,0.00,,,0.13,WUHU216HW,2013-04-15 23:23:00,
2013-04-15 18:28:00,48.6,33.6,29.97,ENE,68,2.2,5.1,56,0.00,,,0.13,WUHU216HW,2013-04-15 23:28:00,
2013-04-15 18:33:00,48.6,33.6,29.97,NNW,338,2.2,5.1,56,0.00,,,0.13,WUHU216HW,2013-04-15 23:33:00,
2013-04-15 18:38:00,48.6,33.6,29.97,NE,45,2.2,4.9,56,0.00,,,0.13,WUHU216HW,2013-04-15 23:38:00,
2013-04-15 18:43:00,48.6,33.6,29.97,NNE,23,2.2,5.6,56,0.00,,,0.13,WUHU216HW,2013-04-15 23:43:00,
2013-04-15 18:48:00,48.6,33.6,29.97,NNE,23,2.5,5.6,56,0.00,,,0.13,WUHU216HW,2013-04-15 23:48:00,
2013-04-15 18:53:00,48.6,33.6,29.98,ENE,68,0.7,5.1,56,0.00,,,0.13,WUHU216HW,2013-04-15 23:53:00,
2013-04-15 18:58:00,48.4,33.4,29.97,NE,45,1.8,6.0,56,0.00,,,0.13,WUHU216HW,2013-04-15 23:58:00,
2013-04-15 19:03:00,48.4,33.4,29.98,ENE,68,1.1,6.0,56,0.00,,,0.13,WUHU216HW,2013-04-16 00:03:00,
2013-04-15 19:08:00,48.2,33.2,29.97,NNE,23,9.2,9.2,56,0.00,,,0.13,WUHU216HW,2013-04-16 00:08:00,
2013-04-15 19:13:00,48.2,33.2,29.97,NE,45,4.7,9.2,56,0.00,,,0.13,WUHU216HW,2013-04-16 00:13:00,
2013-04-15 19:18:00,48.2,33.2,29.97,SE,135,4.5,9.2,56,0.00,,,0.13,WUHU216HW,2013-04-16 00:18:00,
2013-04-15 19:23:00,48.2,33.2,29.98,NW,315,1.1,6.9,56,0.00,,,0.13,WUHU216HW,2013-04-16 00:23:00,
2013-04-15 19:28:00,48.2,33.2,29.98,NNE,23,2.5,6.0,56,0.00,,,0.13,WUHU216HW,2013-04-16 00:28:00,
2013-04-15 19:33:00,48.1,33.0,29.98,ENE,68,2.5,6.0,56,0.00,,,0.13,WUHU216HW,2013-04-16 00:33:00,
2013-04-15 19:38:00,48.1,33.0,29.99,East,90,2.9,5.1,56,0.00,,,0.13,WUHU216HW,2013-04-16 00:38:00,
2013-04-15 19:43:00,48.1,33.0,29.99,ENE,68,2.5,5.1,56,0.00,,,0.13,WUHU216HW,2013-04-16 00:43:00,
2013-04-15 19:48:00,48.1,33.0,29.99,NNE,23,0.9,4.7,56,0.00,,,0.13,WUHU216HW,2013-04-16 00:48:00,
2013-04-15 19:53:00,47.9,32.9,29.99,ESE,113,3.4,4.7,56,0.00,,,0.13,WUHU216HW,2013-04-16 00:53:00,
2013-04-15 19:58:00,47.9,32.9,29.99,North,0,2.5,5.8,56,0.00,,,0.13,WUHU216HW,2013-04-16 00:58:00,
2013-04-15 20:03:00,47.9,32.9,29.99,NE,45,5.8,5.8,56,0.00,,,0.13,WUHU216HW,2013-04-16 01:03:00,
2013-04-15 20:08:00,47.9,32.9,29.99,NE,45,1.1,6.9,56,0.00,,,0.13,WUHU216HW,2013-04-16 01:08:00,
2013-04-15 20:13:00,47.9,32.9,30.00,NNE,23,4.0,6.9,56,0.00,,,0.13,WUHU216HW,2013-04-16 01:13:00,
2013-04-15 20:18:00,47.9,32.9,30.00,North,0,1.3,5.6,56,0.00,,,0.13,WUHU216HW,2013-04-16 01:18:00,
2013-04-15 20:23:00,47.9,32.9,30.00,NNE,23,4.7,6.7,56,0.00,,,0.13,WUHU216HW,2013-04-16 01:23:00,
2013-04-15 20:28:00,47.9,32.9,30.00,North,0,2.5,6.7,56,0.00,,,0.13,WUHU216HW,2013-04-16 01:28:00,
2013-04-15 20:33:00,47.7,32.7,30.01,North,0,4.0,4.9,56,0.00,,,0.13,WUHU216HW,2013-04-16 01:33:00,
2013-04-15 20:38:00,47.7,32.7,30.01,NNE,23,5.4,5.4,56,0.00,,,0.13,WUHU216HW,2013-04-16 01:38:00,
2013-04-15 20:43:00,47.7,32.7,30.01,NE,45,9.2,9.2,56,0.00,,,0.13,WUHU216HW,2013-04-16 01:43:00,
2013-04-15 20:48:00,47.7,33.2,30.02,North,0,1.1,9.2,57,0.00,,,0.13,WUHU216HW,2013-04-16 01:48:00,
2013-04-15 20:53:00,47.7,33.2,30.02,NNE,23,1.8,6.0,57,0.00,,,0.13,WUHU216HW,2013-04-16 01:53:00,
2013-04-15 20:58:00,47.7,33.2,30.02,NNE,23,2.7,7.6,57,0.00,,,0.13,WUHU216HW,2013-04-16 01:58:00,
2013-04-15 21:03:00,47.7,33.2,30.02,North,0,2.5,7.6,57,0.00,,,0.13,WUHU216HW,2013-04-16 02:03:00,
2013-04-15 21:08:00,47.7,33.7,30.03,NE,45,2.0,5.4,58,0.00,,,0.13,WUHU216HW,2013-04-16 02:08:00,
2013-04-15 21:13:00,47.7,33.7,30.03,ENE,68,0.4,5.4,58,0.00,,,0.13,WUHU216HW,2013-04-16 02:13:00,
2013-04-15 21:18:00,47.5,33.5,30.03,NNE,23,3.6,4.7,58,0.00,,,0.13,WUHU216HW,2013-04-16 02:18:00,
2013-04-15 21:23:00,47.5,33.5,30.04,North,0,2.0,4.7,58,0.00,,,0.13,WUHU216HW,2013-04-16 02:23:00,
2013-04-15 21:28:00,47.5,33.5,30.04,NE,45,2.7,6.3,58,0.00,,,0.13,WUHU216HW,2013-04-16 02:28:00,
2013-04-15 21:33:00,47.5,33.5,30.04,NNE,23,3.1,6.3,58,0.00,,,0.13,WUHU216HW,2013-04-16 02:33:00,
2013-04-15 21:38:00,47.5,33.5,30.05,NNE,23,1.8,4.0,58,0.00,,,0.13,WUHU216HW,2013-04-16 02:38:00,
2013-04-15 21:43:00,47.5,33.9,30.06,NNE,23,3.4,5.1,59,0.00,,,0.13,WUHU216HW,2013-04-16 02:43:00,
2013-04-15 21:48:00,47.3,33.8,30.06,North,0,6.9,8.9,59,0.00,,,0.13,WUHU216HW,2013-04-16 02:48:00,
2013-04-15 21:53:00,47.2,33.6,30.06,ENE,68,2.7,10.1,59,0.00,,,0.13,WUHU216HW,2013-04-16 02:53:00,
2013-04-15 21:58:00,47.2,33.6,30.06,North,0,2.9,10.1,59,0.00,,,0.13,WUHU216HW,2013-04-16 02:58:00,
2013-04-15 22:03:00,47.2,33.6,30.07,NNE,23,7.2,9.8,59,0.00,,,0.13,WUHU216HW,2013-04-16 03:03:00,
2013-04-15 22:08:00,47.0,33.4,30.06,NNW,338,6.5,9.8,59,0.00,,,0.13,WUHU216HW,2013-04-16 03:08:00,
2013-04-15 22:13:00,47.0,33.0,30.07,North,0,2.2,9.8,58,0.00,,,0.13,WUHU216HW,2013-04-16 03:13:00,
2013-04-15 22:18:00,46.8,32.8,30.07,NNE,23,3.8,8.5,58,0.00,,,0.13,WUHU216HW,2013-04-16 03:18:00,
2013-04-15 22:23:00,46.6,32.6,30.07,North,0,7.2,9.2,58,0.00,,,0.13,WUHU216HW,2013-04-16 03:23:00,
2013-04-15 22:28:00,46.4,32.0,30.07,NNE,23,2.0,9.2,57,0.00,,,0.13,WUHU216HW,2013-04-16 03:28:00,
2013-04-15 22:33:00,46.4,32.0,30.07,NNE,23,1.6,9.2,57,0.00,,,0.13,WUHU216HW,2013-04-16 03:33:00,
2013-04-15 22:38:00,46.4,32.0,30.07,ENE,68,2.5,7.4,57,0.00,,,0.13,WUHU216HW,2013-04-16 03:38:00,
2013-04-15 22:43:00,46.3,31.8,30.07,North,0,1.8,7.4,57,0.00,,,0.13,WUHU216HW,2013-04-16 03:43:00,
2013-04-15 22:48:00,46.3,31.8,30.07,NE,45,4.0,7.2,57,0.00,,,0.13,WUHU216HW,2013-04-16 03:48:00,
2013-04-15 22:53:00,46.1,31.6,30.07,North,0,4.7,8.9,57,0.00,,,0.13,WUHU216HW,2013-04-16 03:53:00,
2013-04-15 22:58:00,45.9,31.5,30.07,North,0,9.4,9.4,57,0.00,,,0.13,WUHU216HW,2013-04-16 03:58:00,
2013-04-15 23:00:00,45.9,31.5,30.07,North,0,3.6,10.5,57,0.00,,,0.13,WUHU216HW,2013-04-16 04:00:00,
2013-04-15 23:05:00,45.7,31.3,30.07,NE,45,6.9,10.5,57,0.00,,,0.13,WUHU216HW,2013-04-16 04:05:00,
2013-04-15 23:10:00,45.5,31.1,30.06,NNE,23,1.6,7.6,57,0.00,,,0.13,WUHU216HW,2013-04-16 04:10:00,
2013-04-15 23:15:00,45.4,31.4,30.06,North,0,1.8,7.6,58,0.00,,,0.13,WUHU216HW,2013-04-16 04:15:00,
2013-04-15 23:20:00,45.2,31.2,30.06,NNE,23,3.4,6.5,58,0.00,,,0.13,WUHU216HW,2013-04-16 04:20:00,
2013-04-15 23:25:00,45.0,31.2,30.06,SSE,158,2.5,9.2,58,0.00,,,0.13,WUHU216HW,2013-04-16 04:25:00,
2013-04-15 23:30:00,45.0,31.6,30.06,North,0,3.4,9.2,59,0.00,,,0.13,WUHU216HW,2013-04-16 04:30:00,
2013-04-15 23:35:00,44.8,31.4,30.06,North,0,2.0,6.5,59,0.00,,,0.13,WUHU216HW,2013-04-16 04:35:00,
2013-04-15 23:40:00,44.8,31.9,30.06,North,0,5.6,5.6,60,0.00,,,0.13,WUHU216HW,2013-04-16 04:40:00,
2013-04-15 23:45:00,44.8,31.9,30.07,NE,45,1.1,6.9,60,0.00,,,0.13,WUHU216HW,2013-04-16 04:45:00,
2013-04-15 23:50:00,44.8,31.9,30.08,North,0,2.7,7.6,60,0.00,,,0.13,WUHU216HW,2013-04-16 04:50:00,
2013-04-15 23:55:00,44.8,31.9,30.09,NNE,23,1.8,7.6,60,0.00,,,0.13,WUHU216HW,2013-04-16 04:55:00,